Time;durP1;ratioP1;P1;durP2;ratioP2;P2;SDS_P1;SDS_P2;PMS_P1;PMS_P2;Temp;Humidity;BMP_temperature;BMP_pressure;BME280_temperature;BME280_humidity;BME280_pressure;Samples;Min_cycle;Max_cycle;Signal;HPM_P1;HPM_P2
2023/07/04 00:00:25;;;;;;;4.03;1.83;;;14.80;99.90;;;;;;5031040;28;20033;-58
2023/07/04 00:02:51;;;;;;;3.13;1.70;;;14.80;99.90;;;;;;5033062;28;20039;-57
2023/07/04 00:05:17;;;;;;;2.83;1.75;;;14.70;99.90;;;;;;5021236;28;20026;-58
2023/07/04 00:07:43;;;;;;;2.28;1.50;;;14.70;99.90;;;;;;5040047;28;20104;-57
2023/07/04 00:10:09;;;;;;;2.25;1.75;;;14.60;99.90;;;;;;5022137;28;20029;-56
2023/07/04 00:12:34;;;;;;;3.35;1.80;;;14.60;99.90;;;;;;5032286;28;20033;-58
2023/07/04 00:15:00;;;;;;;2.17;1.60;;;14.60;99.90;;;;;;5033512;28;20035;-57
2023/07/04 00:17:26;;;;;;;1.90;1.50;;;14.60;99.90;;;;;;5021991;28;20022;-57
2023/07/04 00:19:52;;;;;;;2.05;1.50;;;14.70;99.90;;;;;;5040509;28;20057;-57
2023/07/04 00:22:18;;;;;;;1.70;1.35;;;14.70;99.90;;;;;;5021702;28;20197;-58
2023/07/04 00:24:44;;;;;;;2.92;1.58;;;14.80;99.90;;;;;;5031459;28;20048;-58
2023/07/04 00:27:12;;;;;;;2.22;1.45;;;14.80;99.90;;;;;;5033342;28;20105;-57
2023/07/04 00:29:38;;;;;;;2.50;1.50;;;14.80;99.90;;;;;;5024500;28;20036;-58
2023/07/04 00:32:05;;;;;;;1.65;1.52;;;14.90;99.90;;;;;;5041524;28;20036;-58
2023/07/04 00:34:31;;;;;;;3.15;1.65;;;14.90;99.90;;;;;;5039334;28;20029;-57
2023/07/04 00:36:59;;;;;;;4.50;1.88;;;14.90;99.90;;;;;;5020916;28;20049;-58
2023/07/04 00:39:26;;;;;;;4.43;1.58;;;14.90;99.90;;;;;;5032789;28;20059;-58
2023/07/04 00:41:52;;;;;;;1.60;1.40;;;14.90;99.90;;;;;;5033982;28;20038;-57
2023/07/04 00:44:24;;;;;;;2.40;1.73;;;14.90;99.90;;;;;;5019303;28;20026;-55
2023/07/04 00:47:42;;;;;;;2.50;1.63;;;14.90;99.90;;;;;;5037764;28;20040;-58
2023/07/04 00:50:11;;;;;;;3.60;1.70;;;14.90;99.90;;;;;;4977590;28;20073;-56
2023/07/04 00:52:37;;;;;;;3.65;1.73;;;14.90;99.90;;;;;;5035239;28;20049;-57
2023/07/04 00:55:09;;;;;;;3.20;1.73;;;14.90;99.90;;;;;;5019350;28;20026;-58
2023/07/04 00:57:37;;;;;;;3.38;1.80;;;14.80;99.90;;;;;;5029920;28;20622;-58
2023/07/04 01:00:17;;;;;;;2.33;1.73;;;14.80;99.90;;;;;;5029928;28;20052;-57
2023/07/04 01:02:45;;;;;;;5.93;2.00;;;14.50;99.90;;;;;;5024618;28;20018;-57
2023/07/04 01:05:13;;;;;;;3.95;1.70;;;14.40;99.90;;;;;;5036314;28;20482;-57
2023/07/04 01:07:59;;;;;;;2.67;2.08;;;14.30;99.90;;;;;;5017840;28;20017;-57
2023/07/04 01:10:36;;;;;;;2.78;1.60;;;14.20;99.90;;;;;;5035553;28;20029;-59
2023/07/04 01:13:02;;;;;;;2.85;1.65;;;14.10;99.90;;;;;;5019761;28;20080;-58
2023/07/04 01:15:29;;;;;;;2.42;1.60;;;14.00;99.90;;;;;;5028785;28;20038;-58
2023/07/04 01:17:56;;;;;;;3.28;1.70;;;14.00;99.90;;;;;;5032422;28;20037;-57
2023/07/04 01:20:23;;;;;;;4.25;1.80;;;14.00;99.90;;;;;;5019813;28;20079;-57
2023/07/04 01:23:08;;;;;;;3.55;2.10;;;13.90;99.90;;;;;;5038234;28;20048;-57
2023/07/04 01:25:58;;;;;;;3.13;2.00;;;14.00;99.90;;;;;;5019747;28;20033;-57
2023/07/04 01:28:24;;;;;;;2.97;1.67;;;14.00;99.90;;;;;;5019208;28;20057;-58
2023/07/04 01:30:51;;;;;;;1.95;1.55;;;14.10;99.90;;;;;;5032744;28;20037;-58
2023/07/04 01:33:20;;;;;;;2.38;1.70;;;14.20;99.90;;;;;;5027334;28;20587;-58
2023/07/04 01:35:46;;;;;;;3.80;1.95;;;14.20;99.90;;;;;;5023706;28;20132;-57
2023/07/04 01:38:30;;;;;;;2.15;1.70;;;14.20;99.90;;;;;;5036810;28;20117;-57
2023/07/04 01:44:18;;;;;;;2.75;1.98;;;14.20;99.90;;;;;;5038129;28;20591;-59
2023/07/04 01:46:44;;;;;;;2.88;1.80;;;14.30;99.90;;;;;;5015782;28;20025;-56
2023/07/04 01:49:10;;;;;;;7.22;1.80;;;14.30;99.90;;;;;;5034555;28;20037;-56
2023/07/04 01:51:39;;;;;;;2.45;1.80;;;14.30;99.90;;;;;;5026336;28;20603;-57
2023/07/04 01:54:06;;;;;;;2.85;1.75;;;14.30;99.90;;;;;;5025373;28;20035;-58
2023/07/04 01:56:33;;;;;;;2.50;2.00;;;14.30;99.90;;;;;;5035064;28;20057;-55
2023/07/04 01:58:59;;;;;;;3.65;2.58;;;14.20;99.90;;;;;;5017353;28;20028;-57
2023/07/04 02:01:25;;;;;;;3.20;2.10;;;14.30;99.90;;;;;;5035010;28;20029;-58
2023/07/04 02:03:51;;;;;;;3.60;2.42;;;14.30;99.90;;;;;;5022815;28;20099;-55
2023/07/04 02:06:17;;;;;;;2.92;1.83;;;14.30;99.90;;;;;;5031289;28;20033;-57
2023/07/04 02:08:43;;;;;;;3.28;2.20;;;14.30;99.90;;;;;;5031618;28;20044;-58
2023/07/04 02:11:09;;;;;;;4.75;1.75;;;14.30;99.90;;;;;;5019043;28;20841;-58
2023/07/04 02:13:34;;;;;;;3.42;1.77;;;14.30;99.90;;;;;;5035540;28;20505;-58
2023/07/04 02:16:00;;;;;;;3.90;1.95;;;14.30;99.90;;;;;;5023731;28;20034;-56
2023/07/04 02:18:26;;;;;;;3.55;2.10;;;14.30;99.90;;;;;;5028765;28;20516;-57
2023/07/04 02:20:53;;;;;;;4.50;2.10;;;14.30;99.90;;;;;;5027144;28;20060;-57
2023/07/04 02:23:18;;;;;;;2.33;1.70;;;14.40;99.90;;;;;;5018002;28;20022;-57
2023/07/04 02:25:44;;;;;;;3.00;1.90;;;14.40;99.90;;;;;;5039019;28;20466;-58
2023/07/04 02:28:10;;;;;;;2.30;1.60;;;14.40;99.90;;;;;;5021070;28;20034;-57
2023/07/04 02:30:37;;;;;;;3.88;2.13;;;14.30;99.90;;;;;;5028236;28;20395;-57
2023/07/04 02:33:04;;;;;;;4.75;2.08;;;14.30;99.90;;;;;;5029843;28;20049;-57
2023/07/04 02:35:30;;;;;;;2.78;2.05;;;14.20;99.90;;;;;;5019886;28;20833;-59
2023/07/04 02:37:56;;;;;;;2.72;1.73;;;14.10;99.90;;;;;;5040026;28;20057;-57
2023/07/04 02:40:23;;;;;;;2.20;1.75;;;14.10;99.90;;;;;;5019266;28;20033;-57
2023/07/04 02:42:49;;;;;;;3.10;2.35;;;14.00;99.90;;;;;;5031553;28;20108;-57
2023/07/04 02:45:14;;;;;;;4.25;2.10;;;13.90;99.90;;;;;;5027183;28;20109;-58
2023/07/04 02:47:40;;;;;;;3.05;2.15;;;13.80;99.90;;;;;;5022525;28;20025;-58
2023/07/04 02:50:06;;;;;;;3.28;2.03;;;13.70;99.90;;;;;;5035792;28;20037;-57
2023/07/04 02:52:32;;;;;;;2.78;1.90;;;13.60;99.90;;;;;;5018511;28;20723;-56
2023/07/04 02:54:58;;;;;;;4.43;2.25;;;13.60;99.90;;;;;;5032013;28;20025;-57
2023/07/04 02:57:24;;;;;;;3.50;2.35;;;13.50;99.90;;;;;;5024638;28;20034;-58
2023/07/04 02:59:49;;;;;;;4.15;2.10;;;13.50;99.90;;;;;;5022322;28;20454;-57
2023/07/04 03:02:15;;;;;;;5.18;2.30;;;13.50;99.90;;;;;;5033470;28;20523;-57
2023/07/04 03:04:41;;;;;;;2.53;2.20;;;13.50;99.90;;;;;;5015137;28;20033;-58
2023/07/04 03:07:07;;;;;;;2.85;2.00;;;13.40;99.90;;;;;;5036445;28;20382;-56
2023/07/04 03:09:33;;;;;;;5.13;2.42;;;13.40;99.90;;;;;;5024965;28;20038;-57
2023/07/04 03:11:58;;;;;;;2.60;2.35;;;13.50;99.90;;;;;;5019956;28;20429;-58
2023/07/04 03:14:25;;;;;;;4.38;2.17;;;13.40;99.90;;;;;;5032915;28;22348;-58
2023/07/04 03:16:50;;;;;;;5.45;2.53;;;13.40;99.90;;;;;;5033914;28;20026;-57
2023/07/04 03:19:16;;;;;;;5.43;2.78;;;13.50;99.90;;;;;;5016814;28;20135;-56
2023/07/04 03:21:42;;;;;;;5.18;2.55;;;13.50;99.90;;;;;;5030171;28;20047;-58
2023/07/04 03:24:07;;;;;;;4.35;2.28;;;13.50;99.90;;;;;;5028459;28;20076;-56
2023/07/04 03:26:34;;;;;;;3.70;3.13;;;13.40;99.90;;;;;;5019492;28;20075;-57
2023/07/04 03:29:01;;;;;;;4.15;2.35;;;13.40;99.90;;;;;;5035012;28;20440;-57
2023/07/04 03:31:26;;;;;;;3.45;2.20;;;13.40;99.90;;;;;;5015270;28;20122;-58
2023/07/04 03:33:52;;;;;;;4.55;2.28;;;13.40;99.90;;;;;;5030660;28;20116;-58
2023/07/04 03:36:18;;;;;;;2.97;2.20;;;13.40;99.90;;;;;;5027978;28;20034;-58
2023/07/04 03:38:44;;;;;;;4.13;2.92;;;13.40;99.90;;;;;;5020802;28;20025;-58
2023/07/04 03:41:09;;;;;;;3.95;2.50;;;13.30;99.90;;;;;;5035975;28;20029;-57
2023/07/04 03:43:35;;;;;;;7.85;2.10;;;13.30;99.90;;;;;;5019163;28;20018;-57
2023/07/04 03:46:02;;;;;;;3.50;2.65;;;13.20;99.90;;;;;;5031604;28;20037;-57
2023/07/04 03:48:27;;;;;;;3.97;2.30;;;13.10;99.90;;;;;;5025807;28;20478;-57
2023/07/04 03:50:53;;;;;;;3.72;2.80;;;13.10;99.90;;;;;;5020526;28;20152;-56
2023/07/04 03:53:18;;;;;;;4.60;2.75;;;13.10;99.90;;;;;;5032063;28;20435;-57
2023/07/04 03:55:44;;;;;;;4.05;2.97;;;13.10;99.90;;;;;;5014837;28;20453;-57
2023/07/04 03:58:10;;;;;;;4.72;3.05;;;13.20;99.90;;;;;;5034665;28;20025;-58
2023/07/04 04:00:35;;;;;;;3.72;2.70;;;13.20;99.90;;;;;;5024444;28;20061;-57
2023/07/04 04:03:01;;;;;;;4.38;2.58;;;13.30;99.90;;;;;;5027934;28;20033;-58
2023/07/04 04:05:28;;;;;;;3.92;2.92;;;13.30;99.90;;;;;;5035891;28;20028;-56
2023/07/04 04:07:54;;;;;;;5.38;2.60;;;13.40;99.90;;;;;;5018569;28;20110;-57
2023/07/04 04:10:20;;;;;;;4.30;2.33;;;13.40;99.90;;;;;;5038968;28;20144;-57
2023/07/04 04:12:46;;;;;;;2.80;2.20;;;13.50;99.90;;;;;;5021243;28;20038;-58
2023/07/04 04:15:12;;;;;;;4.82;2.88;;;13.60;99.90;;;;;;5028257;28;20414;-56
2023/07/04 04:17:38;;;;;;;6.00;2.55;;;13.70;99.90;;;;;;5034549;28;20037;-56
2023/07/04 04:20:06;;;;;;;3.28;2.67;;;13.80;99.90;;;;;;5021501;28;20398;-56
2023/07/04 04:22:35;;;;;;;3.63;2.92;;;13.80;99.90;;;;;;5019562;28;20162;-56
2023/07/04 04:25:00;;;;;;;3.97;2.97;;;13.90;99.90;;;;;;5035464;28;20033;-57
2023/07/04 04:27:26;;;;;;;7.75;2.40;;;13.90;99.90;;;;;;5027729;28;20026;-57
2023/07/04 04:29:53;;;;;;;4.95;3.17;;;14.00;99.90;;;;;;5024574;28;20056;-57
2023/07/04 04:32:20;;;;;;;4.63;2.83;;;14.10;99.90;;;;;;5038314;28;20082;-58
2023/07/04 04:34:45;;;;;;;5.30;3.15;;;14.10;99.90;;;;;;5019402;28;20117;-57
2023/07/04 04:37:11;;;;;;;3.95;2.80;;;14.20;99.90;;;;;;5037003;28;20120;-58
2023/07/04 04:39:37;;;;;;;4.38;2.53;;;14.20;99.90;;;;;;5033201;28;20402;-57
2023/07/04 04:42:03;;;;;;;4.00;2.42;;;14.20;99.90;;;;;;5024786;28;20040;-57
2023/07/04 04:44:29;;;;;;;3.13;2.83;;;14.30;99.90;;;;;;5038179;28;20033;-58
2023/07/04 04:46:55;;;;;;;3.25;2.72;;;14.40;99.90;;;;;;5026898;28;20028;-57
2023/07/04 04:49:21;;;;;;;4.30;2.88;;;14.40;99.90;;;;;;5036638;28;20032;-57
2023/07/04 04:51:49;;;;;;;3.13;2.40;;;14.50;99.90;;;;;;5026998;28;20034;-56
2023/07/04 04:54:15;;;;;;;3.15;2.83;;;14.60;99.90;;;;;;5026109;28;20076;-57
2023/07/04 04:56:40;;;;;;;3.83;2.55;;;14.60;99.90;;;;;;5032096;28;20033;-58
2023/07/04 04:59:10;;;;;;;3.60;2.85;;;14.70;99.90;;;;;;5020470;28;20444;-58
2023/07/04 05:01:37;;;;;;;3.55;2.47;;;14.80;99.90;;;;;;5041385;28;20041;-57
2023/07/04 05:04:03;;;;;;;4.63;3.10;;;14.90;99.90;;;;;;5019980;28;20386;-58
2023/07/04 05:06:30;;;;;;;3.53;2.80;;;15.00;99.90;;;;;;5030326;28;20033;-58
2023/07/04 05:08:55;;;;;;;3.60;2.42;;;15.10;99.90;;;;;;5027434;28;20030;-57
2023/07/04 05:11:21;;;;;;;3.95;3.00;;;15.20;99.90;;;;;;5019565;28;20598;-58
2023/07/04 05:13:48;;;;;;;5.40;2.97;;;15.20;99.90;;;;;;5040150;28;20103;-58
2023/07/04 05:16:17;;;;;;;3.00;2.40;;;15.30;99.90;;;;;;5018470;28;20248;-57
2023/07/04 05:18:44;;;;;;;5.03;2.80;;;15.40;99.90;;;;;;5033279;28;20112;-58
2023/07/04 05:21:13;;;;;;;4.50;3.00;;;15.50;99.90;;;;;;5027691;28;20029;-58
2023/07/04 05:23:41;;;;;;;3.15;2.78;;;15.60;99.90;;;;;;5022306;28;20099;-58
2023/07/04 05:26:13;;;;;;;3.65;3.00;;;15.70;99.90;;;;;;5038481;28;20030;-59
2023/07/04 05:28:39;;;;;;;4.57;2.70;;;15.80;99.90;;;;;;5019505;28;20024;-56
2023/07/04 05:31:13;;;;;;;7.43;2.95;;;15.90;99.90;;;;;;5033231;28;20032;-57
2023/07/04 05:33:40;;;;;;;5.88;2.63;;;16.00;99.90;;;;;;5023547;28;20038;-56
2023/07/04 05:36:19;;;;;;;8.48;3.15;;;16.10;99.90;;;;;;5025854;28;20437;-58
2023/07/04 05:38:47;;;;;;;4.57;2.50;;;16.20;99.90;;;;;;5032611;28;20063;-58
2023/07/04 05:41:17;;;;;;;3.97;2.53;;;16.30;99.90;;;;;;5018529;28;20099;-58
2023/07/04 05:43:43;;;;;;;6.60;3.25;;;16.40;99.90;;;;;;5038986;28;20032;-58
2023/07/04 05:46:11;;;;;;;5.03;2.60;;;16.50;99.90;;;;;;5020120;28;20100;-58
2023/07/04 05:48:38;;;;;;;4.45;2.92;;;16.60;99.90;;;;;;5031258;28;20079;-58
2023/07/04 05:51:09;;;;;;;2.92;2.42;;;16.70;99.90;;;;;;5030509;28;20080;-57
2023/07/04 05:53:37;;;;;;;6.05;2.72;;;16.80;99.90;;;;;;5021780;28;20525;-58
2023/07/04 05:56:12;;;;;;;6.25;3.17;;;16.80;99.90;;;;;;5037135;28;20071;-57
2023/07/04 05:58:41;;;;;;;3.65;2.78;;;16.90;99.90;;;;;;5020500;28;20130;-59
2023/07/04 06:01:08;;;;;;;5.47;3.20;;;17.00;99.90;;;;;;5019620;28;20513;-58
2023/07/04 06:03:34;;;;;;;4.72;3.40;;;17.10;99.90;;;;;;5035650;28;20524;-58
2023/07/04 06:06:04;;;;;;;5.63;3.25;;;17.10;99.90;;;;;;5030873;28;20025;-59
2023/07/04 06:08:31;;;;;;;6.47;3.33;;;17.20;99.90;;;;;;5024730;28;20508;-58
2023/07/04 06:11:02;;;;;;;5.00;2.67;;;17.30;99.90;;;;;;5042670;28;20025;-59
2023/07/04 06:13:29;;;;;;;5.60;3.15;;;17.40;99.90;;;;;;5018769;28;20088;-58
2023/07/04 06:15:55;;;;;;;4.70;2.65;;;17.50;99.90;;;;;;5033235;28;20036;-58
2023/07/04 06:18:22;;;;;;;7.18;2.90;;;17.50;99.90;;;;;;5028433;28;20084;-58
2023/07/04 06:20:47;;;;;;;6.63;2.80;;;17.60;99.90;;;;;;5025435;28;20079;-57
2023/07/04 06:23:14;;;;;;;5.05;3.17;;;17.70;99.90;;;;;;5039504;28;20493;-58
2023/07/04 06:25:39;;;;;;;4.32;2.78;;;17.80;99.90;;;;;;5018268;28;20054;-59
2023/07/04 06:28:05;;;;;;;9.25;3.42;;;17.80;99.90;;;;;;5038715;28;20052;-56
2023/07/04 06:30:34;;;;;;;4.50;3.38;;;17.90;99.90;;;;;;5029877;28;20033;-58
2023/07/04 06:33:03;;;;;;;4.57;3.60;;;18.00;99.90;;;;;;5026621;28;20060;-57
2023/07/04 06:35:29;;;;;;;5.63;3.03;;;18.10;99.90;;;;;;5034741;28;20033;-57
2023/07/04 06:37:55;;;;;;;7.78;3.50;;;18.20;99.90;;;;;;5021461;28;20026;-59
2023/07/04 06:40:20;;;;;;;6.07;4.00;;;18.30;99.90;;;;;;5037859;28;20087;-59
2023/07/04 06:42:46;;;;;;;8.10;3.28;;;18.40;99.90;;;;;;5025063;28;20076;-59
2023/07/04 06:45:12;;;;;;;4.80;3.28;;;18.50;99.90;;;;;;5034011;28;20083;-58
2023/07/04 06:47:37;;;;;;;4.55;3.25;;;18.60;99.90;;;;;;5030461;28;20117;-58
2023/07/04 06:50:03;;;;;;;6.68;3.20;;;18.70;99.90;;;;;;5018127;28;20568;-57
2023/07/04 06:52:30;;;;;;;5.25;3.25;;;18.90;99.90;;;;;;5036964;28;20401;-58
2023/07/04 06:54:56;;;;;;;5.53;3.60;;;19.10;99.90;;;;;;5022129;28;20144;-58
2023/07/04 06:57:22;;;;;;;6.68;3.88;;;19.30;99.90;;;;;;5026305;28;20615;-58
2023/07/04 06:59:52;;;;;;;8.38;3.83;;;19.50;99.90;;;;;;5033599;28;20041;-57
2023/07/04 07:02:18;;;;;;;7.40;3.85;;;19.60;99.90;;;;;;5021986;28;20026;-57
2023/07/04 07:04:44;;;;;;;5.60;4.35;;;19.70;99.90;;;;;;5039351;28;20389;-59
2023/07/04 07:07:10;;;;;;;7.60;3.70;;;19.70;99.90;;;;;;5024003;28;20088;-58
2023/07/04 07:09:38;;;;;;;5.60;4.00;;;19.60;99.90;;;;;;5031133;28;20064;-58
2023/07/04 07:12:04;;;;;;;5.40;3.63;;;19.60;99.90;;;;;;5030585;28;20049;-57
2023/07/04 07:14:30;;;;;;;6.88;4.22;;;19.70;99.90;;;;;;5024110;28;20551;-57
2023/07/04 07:16:56;;;;;;;6.15;4.05;;;19.90;99.90;;;;;;5043076;28;20060;-59
2023/07/04 07:19:23;;;;;;;7.65;4.45;;;20.00;99.90;;;;;;5020898;28;20092;-57
2023/07/04 07:21:49;;;;;;;6.90;4.25;;;19.90;99.90;;;;;;5035036;28;20045;-57
2023/07/04 07:24:15;;;;;;;9.75;4.15;;;19.90;99.90;;;;;;5027300;28;20018;-56
2023/07/04 07:26:41;;;;;;;6.15;3.90;;;20.00;99.90;;;;;;5019052;28;20044;-59
2023/07/04 07:29:07;;;;;;;4.93;4.03;;;20.10;99.90;;;;;;5035427;28;20021;-57
2023/07/04 07:31:32;;;;;;;10.32;3.83;;;20.20;99.90;;;;;;5015160;28;20361;-58
2023/07/04 07:33:58;;;;;;;11.88;4.25;;;20.30;99.90;;;;;;5031111;28;20057;-58
2023/07/04 07:36:25;;;;;;;7.95;3.05;;;20.40;99.90;;;;;;5026932;28;20460;-59
2023/07/04 07:38:52;;;;;;;4.80;3.35;;;20.40;99.90;;;;;;5022699;28;20037;-58
2023/07/04 07:41:19;;;;;;;8.18;3.28;;;20.30;97.80;;;;;;5044596;28;20041;-59
2023/07/04 07:43:45;;;;;;;5.07;3.42;;;20.30;97.80;;;;;;5019731;28;20017;-58
2023/07/04 07:46:13;;;;;;;7.97;4.00;;;20.30;96.70;;;;;;5036589;28;20104;-58
2023/07/04 07:48:39;;;;;;;6.85;4.68;;;20.20;97.80;;;;;;5027225;28;20406;-57
2023/07/04 07:51:07;;;;;;;5.65;3.75;;;20.10;98.90;;;;;;5026477;28;20034;-58
2023/07/04 07:53:34;;;;;;;6.57;3.75;;;20.10;99.50;;;;;;5036147;28;20042;-58
2023/07/04 07:56:00;;;;;;;7.72;3.88;;;20.00;98.90;;;;;;5019254;28;20018;-58
2023/07/04 07:58:26;;;;;;;8.18;3.72;;;20.10;99.80;;;;;;5037054;28;20029;-58
2023/07/04 08:00:52;;;;;;;8.80;3.90;;;20.20;99.90;;;;;;5025135;28;20129;-57
2023/07/04 08:03:17;;;;;;;6.20;3.80;;;20.30;99.90;;;;;;5030883;28;20123;-57
2023/07/04 08:05:45;;;;;;;6.45;3.60;;;20.50;99.90;;;;;;5035350;28;20038;-59
2023/07/04 08:08:11;;;;;;;7.35;4.00;;;20.70;99.90;;;;;;5018763;28;20032;-58
2023/07/04 08:10:42;;;;;;;7.20;3.78;;;20.90;99.90;;;;;;5040897;28;20043;-59
2023/07/04 08:13:09;;;;;;;6.85;3.67;;;21.00;97.10;;;;;;5019924;28;20021;-57
2023/07/04 08:15:35;;;;;;;4.72;3.45;;;21.00;97.60;;;;;;5031477;28;20483;-57
2023/07/04 08:18:09;;;;;;;6.68;3.85;;;21.00;92.90;;;;;;5033214;28;20033;-58
2023/07/04 08:20:35;;;;;;;6.68;3.97;;;21.00;94.60;;;;;;5024707;28;20518;-59
2023/07/04 08:23:01;;;;;;;7.20;4.32;;;20.90;93.20;;;;;;5041679;28;20536;-58
2023/07/04 08:25:27;;;;;;;5.53;4.07;;;20.90;94.20;;;;;;5020600;28;20112;-57
2023/07/04 08:27:53;;;;;;;5.55;3.83;;;20.90;93.80;;;;;;5033744;28;20034;-58
2023/07/04 08:30:19;;;;;;;7.50;4.30;;;20.90;92.60;;;;;;5029146;28;20592;-58
2023/07/04 08:32:45;;;;;;;7.57;4.18;;;20.90;91.30;;;;;;5024420;28;20461;-59
2023/07/04 08:35:11;;;;;;;5.25;3.80;;;20.90;93.60;;;;;;5041863;28;20060;-58
2023/07/04 08:37:36;;;;;;;10.25;3.78;;;21.10;93.90;;;;;;5023020;28;20033;-58
2023/07/04 08:40:03;;;;;;;5.22;3.75;;;21.40;92.30;;;;;;5034819;28;20025;-59
2023/07/04 08:42:32;;;;;;;6.22;3.78;;;21.60;91.90;;;;;;5026481;28;20033;-59
2023/07/04 08:44:59;;;;;;;6.03;3.90;;;21.70;88.80;;;;;;5023967;28;20021;-58
2023/07/04 08:47:25;;;;;;;5.13;3.83;;;21.70;85.40;;;;;;5035644;28;20807;-57
2023/07/04 08:50:28;;;;;;;7.00;4.15;;;21.80;83.40;;;;;;5020614;28;20803;-59
2023/07/04 08:53:01;;;;;;;6.75;4.25;;;21.80;81.80;;;;;;5012421;28;20045;-58
2023/07/04 08:55:28;;;;;;;5.18;3.97;;;21.70;80.90;;;;;;5039828;28;20018;-57
2023/07/04 08:57:59;;;;;;;4.65;3.47;;;21.60;81.10;;;;;;5023551;28;20113;-58
2023/07/04 09:00:36;;;;;;;7.50;4.47;;;21.70;80.80;;;;;;5034962;28;20385;-59
2023/07/04 09:03:19;;;;;;;5.80;4.38;;;21.70;82.40;;;;;;5028914;28;20034;-57
2023/07/04 09:05:56;;;;;;;7.32;4.28;;;21.60;79.50;;;;;;5024041;28;20026;-58
2023/07/04 09:09:02;;;;;;;5.20;4.25;;;21.60;78.00;;;;;;5035073;28;20024;-58
2023/07/04 09:11:29;;;;;;;9.10;3.80;;;21.70;74.80;;;;;;5023794;28;20029;-59
2023/07/04 09:14:33;;;;;;;7.50;4.07;;;21.80;76.60;;;;;;5042500;28;20400;-57
2023/07/04 09:17:04;;;;;;;5.00;3.80;;;21.80;76.90;;;;;;5039088;28;20037;-59
2023/07/04 09:19:34;;;;;;;4.63;4.05;;;21.90;78.70;;;;;;5019564;28;20559;-58
2023/07/04 09:22:05;;;;;;;8.07;3.93;;;22.20;76.10;;;;;;5033121;28;20038;-59
2023/07/04 09:24:30;;;;;;;6.35;3.60;;;22.40;75.30;;;;;;5027091;28;20080;-58
2023/07/04 09:26:56;;;;;;;4.80;3.85;;;22.70;72.10;;;;;;5024093;28;20029;-58
2023/07/04 09:29:24;;;;;;;7.40;4.30;;;23.00;72.30;;;;;;5034555;28;20166;-58
2023/07/04 09:31:58;;;;;;;8.55;3.85;;;23.10;67.50;;;;;;5017859;28;20027;-57
2023/07/04 09:34:50;;;;;;;7.25;3.92;;;23.00;66.90;;;;;;5036526;28;20107;-56
2023/07/04 09:37:19;;;;;;;5.68;3.92;;;23.20;66.50;;;;;;5017712;28;20114;-57
2023/07/04 09:39:48;;;;;;;5.75;3.97;;;23.20;66.90;;;;;;5029392;28;20032;-57
2023/07/04 09:42:15;;;;;;;4.18;3.63;;;23.30;67.10;;;;;;5027695;28;20118;-57
2023/07/04 09:44:41;;;;;;;5.57;3.70;;;23.30;64.00;;;;;;5024641;28;20025;-57
2023/07/04 09:47:33;;;;;;;3.88;3.22;;;23.30;63.20;;;;;;5036742;28;20390;-58
2023/07/04 09:50:10;;;;;;;6.43;3.78;;;23.40;63.60;;;;;;5017684;28;20037;-58
2023/07/04 09:52:36;;;;;;;6.97;4.00;;;23.50;63.10;;;;;;5012941;28;20046;-57
2023/07/04 09:55:25;;;;;;;5.70;3.20;;;23.80;62.00;;;;;;5030230;28;20040;-57
2023/07/04 09:57:51;;;;;;;5.20;3.70;;;24.00;60.50;;;;;;5020511;28;20038;-57
2023/07/04 10:00:24;;;;;;;4.03;3.60;;;24.10;61.60;;;;;;5031102;28;20098;-59
2023/07/04 10:02:56;;;;;;;5.47;3.83;;;24.20;59.40;;;;;;5030481;28;20198;-59
2023/07/04 10:05:31;;;;;;;5.40;3.88;;;24.20;58.80;;;;;;5022514;28;20072;-58
2023/07/04 10:08:06;;;;;;;5.32;4.18;;;24.20;58.90;;;;;;5035514;28;20109;-59
2023/07/04 10:10:36;;;;;;;6.18;3.63;;;24.20;59.40;;;;;;5036920;28;20505;-58
2023/07/04 10:13:04;;;;;;;7.78;4.22;;;24.30;58.60;;;;;;5022872;28;20038;-59
2023/07/04 10:15:42;;;;;;;7.53;3.72;;;24.20;58.60;;;;;;5025435;28;20025;-58
2023/07/04 10:18:26;;;;;;;5.82;4.03;;;24.20;58.90;;;;;;5029944;28;20054;-58
2023/07/04 10:20:54;;;;;;;6.40;4.07;;;24.10;57.20;;;;;;5020872;28;20029;-58
2023/07/04 10:23:21;;;;;;;8.45;4.40;;;24.10;57.60;;;;;;5033102;28;20029;-58
2023/07/04 10:25:49;;;;;;;6.93;4.20;;;24.20;59.30;;;;;;5017808;28;20034;-57
2023/07/04 10:28:17;;;;;;;4.63;3.80;;;24.30;58.40;;;;;;5034429;28;20040;-58
2023/07/04 10:30:47;;;;;;;5.72;3.90;;;24.40;56.80;;;;;;5024714;28;20053;-60
2023/07/04 10:33:24;;;;;;;7.60;4.97;;;24.40;56.60;;;;;;5026025;28;20207;-58
2023/07/04 10:35:51;;;;;;;4.90;4.38;;;24.40;56.10;;;;;;5031266;28;20030;-58
2023/07/04 10:38:43;;;;;;;3.85;3.40;;;24.40;57.10;;;;;;5019086;28;20144;-59
2023/07/04 10:41:38;;;;;;;4.25;3.70;;;24.40;56.40;;;;;;5033391;28;20075;-59
2023/07/04 10:44:10;;;;;;;4.97;4.03;;;24.30;56.20;;;;;;5018325;28;20026;-59
2023/07/04 10:46:48;;;;;;;4.78;4.28;;;24.20;57.10;;;;;;5018860;28;20033;-58
2023/07/04 10:49:20;;;;;;;6.22;4.57;;;24.30;56.20;;;;;;5033616;28;20040;-57
2023/07/04 10:51:50;;;;;;;4.60;3.97;;;24.50;55.20;;;;;;5023782;28;20034;-57
2023/07/04 10:54:16;;;;;;;5.53;4.30;;;24.40;54.30;;;;;;5027008;28;20033;-59
2023/07/04 10:56:50;;;;;;;6.78;4.65;;;24.30;53.60;;;;;;5031403;28;20041;-58
2023/07/04 10:59:28;;;;;;;6.88;4.07;;;24.30;55.20;;;;;;5018883;28;20029;-55
2023/07/04 11:02:02;;;;;;;6.88;5.05;;;24.60;53.20;;;;;;5042007;28;20024;-59
2023/07/04 11:04:34;;;;;;;3.97;3.53;;;24.70;52.50;;;;;;5017518;28;20045;-59
2023/07/04 11:07:08;;;;;;;6.68;3.85;;;24.90;53.00;;;;;;5029246;28;20025;-58
2023/07/04 11:09:41;;;;;;;5.05;4.63;;;24.80;52.60;;;;;;5041110;28;20045;-58
2023/07/04 11:12:13;;;;;;;9.48;4.80;;;24.50;52.20;;;;;;5026744;28;20509;-58
2023/07/04 11:14:41;;;;;;;5.38;4.40;;;24.50;53.70;;;;;;5033702;28;20116;-58
2023/07/04 11:17:16;;;;;;;6.20;4.85;;;24.50;53.70;;;;;;5023565;28;20018;-58
2023/07/04 11:20:01;;;;;;;9.55;5.35;;;24.60;52.10;;;;;;5042507;28;20017;-59
2023/07/04 11:22:54;;;;;;;6.28;4.93;;;24.70;53.00;;;;;;5021272;28;20037;-58
2023/07/04 11:25:42;;;;;;;6.50;4.93;;;24.90;54.80;;;;;;5041503;28;20447;-59
2023/07/04 11:28:26;;;;;;;10.35;5.35;;;25.10;53.30;;;;;;5024400;28;20521;-58
2023/07/04 11:31:06;;;;;;;11.85;6.82;;;25.30;52.30;;;;;;5035362;28;20048;-60
2023/07/04 11:34:00;;;;;;;11.93;6.68;;;25.40;50.20;;;;;;5026190;28;20513;-58
2023/07/04 11:36:45;;;;;;;7.32;6.65;;;25.50;49.00;;;;;;5034075;28;20032;-59
2023/07/04 11:39:34;;;;;;;7.25;6.65;;;25.40;48.00;;;;;;5033658;28;20142;-58
2023/07/04 11:42:20;;;;;;;6.97;5.90;;;25.40;48.60;;;;;;5027910;28;20033;-59
2023/07/04 11:45:01;;;;;;;7.53;6.57;;;25.30;49.50;;;;;;5034407;28;20095;-59
2023/07/04 11:47:35;;;;;;;7.78;6.32;;;25.40;49.40;;;;;;5023919;28;20033;-58
2023/07/04 11:50:10;;;;;;;7.55;6.50;;;25.40;50.40;;;;;;5041082;28;20025;-58
2023/07/04 11:52:40;;;;;;;8.93;5.95;;;25.60;49.80;;;;;;5020621;28;20045;-57
2023/07/04 11:55:31;;;;;;;8.63;7.05;;;25.80;51.10;;;;;;5021391;28;20028;-57
2023/07/04 11:58:09;;;;;;;7.25;6.55;;;26.00;48.20;;;;;;5030523;28;20037;-59
2023/07/04 12:00:37;;;;;;;6.90;6.20;;;26.00;49.00;;;;;;5028129;28;20505;-58
2023/07/04 12:03:17;;;;;;;7.60;6.28;;;26.00;47.90;;;;;;5028211;28;20025;-58
2023/07/04 12:05:49;;;;;;;9.68;7.55;;;25.90;49.90;;;;;;5035175;28;20444;-58
2023/07/04 12:08:21;;;;;;;8.30;7.40;;;25.90;48.20;;;;;;5020971;28;20045;-58
2023/07/04 12:10:47;;;;;;;8.77;7.38;;;25.80;47.60;;;;;;5039829;28;20096;-58
2023/07/04 12:13:19;;;;;;;8.88;7.90;;;25.80;47.90;;;;;;5029942;28;20037;-58
2023/07/04 12:15:51;;;;;;;8.60;7.80;;;25.80;49.00;;;;;;5019694;28;20394;-59
2023/07/04 12:18:24;;;;;;;8.50;7.20;;;25.90;48.80;;;;;;5017968;28;20037;-58
2023/07/04 12:20:50;;;;;;;9.05;7.03;;;26.10;48.60;;;;;;5016294;28;20037;-59
2023/07/04 12:23:17;;;;;;;8.10;7.35;;;26.20;47.60;;;;;;5022309;28;20034;-58
2023/07/04 12:25:49;;;;;;;8.52;7.72;;;26.20;47.30;;;;;;5037874;28;20022;-58
2023/07/04 12:28:17;;;;;;;9.48;7.72;;;26.10;47.80;;;;;;5022212;28;20037;-58
2023/07/04 12:30:50;;;;;;;12.57;7.53;;;26.10;47.50;;;;;;5039334;28;20033;-57
2023/07/04 12:33:30;;;;;;;8.57;7.78;;;26.20;49.20;;;;;;5027505;28;20241;-59
2023/07/04 12:36:06;;;;;;;9.07;8.23;;;26.40;48.40;;;;;;5025314;28;20383;-59
2023/07/04 12:38:32;;;;;;;9.43;8.52;;;26.40;49.40;;;;;;5035430;28;20124;-59
2023/07/04 12:40:59;;;;;;;9.60;8.73;;;26.70;49.60;;;;;;5020196;28;20029;-59
2023/07/04 12:43:30;;;;;;;8.88;7.75;;;26.80;46.50;;;;;;5035716;28;20120;-59
2023/07/04 12:46:18;;;;;;;8.13;7.35;;;26.60;47.10;;;;;;5025873;28;20087;-59
2023/07/04 12:48:45;;;;;;;8.48;7.35;;;26.40;49.00;;;;;;5034043;28;20118;-57
2023/07/04 12:51:15;;;;;;;8.35;7.55;;;26.50;48.80;;;;;;5031178;28;20033;-58
2023/07/04 12:53:42;;;;;;;8.48;7.60;;;26.80;48.40;;;;;;5027351;28;20049;-61
2023/07/04 12:56:10;;;;;;;8.77;7.97;;;26.90;47.80;;;;;;5039467;28;20455;-59
2023/07/04 12:58:43;;;;;;;9.52;8.73;;;27.10;46.70;;;;;;5022008;28;20026;-58
2023/07/04 13:01:11;;;;;;;9.35;8.55;;;27.30;46.80;;;;;;5039073;28;20052;-58